Time;durP1;ratioP1;P1;durP2;ratioP2;P2;SDS_P1;SDS_P2;PMS_P1;PMS_P2;Temp;Humidity;BMP_temperature;BMP_pressure;BME280_temperature;BME280_humidity;BME280_pressure;Samples;Min_cycle;Max_cycle;Signal;HPM_P1;HPM_P2
2021/08/29 00:01:24;;;;;;;15.43;6.22;;;15.90;85.20;;;;;;5134074;27;20378;-38
2021/08/29 00:03:50;;;;;;;7.35;5.32;;;15.90;85.40;;;;;;5135382;27;20027;-38
2021/08/29 00:06:16;;;;;;;8.77;5.15;;;15.90;85.30;;;;;;5135216;27;20027;-38
2021/08/29 00:08:41;;;;;;;13.93;5.65;;;15.90;85.50;;;;;;5135429;27;20027;-38
2021/08/29 00:11:07;;;;;;;9.65;5.07;;;15.90;85.90;;;;;;5133696;27;20023;-38
2021/08/29 00:13:33;;;;;;;7.45;4.75;;;15.90;85.80;;;;;;5135253;27;20023;-37
2021/08/29 00:15:59;;;;;;;10.57;5.65;;;15.80;86.00;;;;;;5133601;27;20019;-37
2021/08/29 00:18:25;;;;;;;11.68;5.35;;;15.80;86.20;;;;;;5134949;27;20016;-37
2021/08/29 00:20:51;;;;;;;9.38;5.68;;;15.80;86.40;;;;;;5134866;27;20096;-37
2021/08/29 00:23:16;;;;;;;8.27;4.45;;;15.80;86.10;;;;;;5134517;27;20019;-37
2021/08/29 00:25:42;;;;;;;12.80;5.70;;;15.80;86.10;;;;;;5134800;27;20059;-37
2021/08/29 00:28:08;;;;;;;6.93;4.75;;;15.80;86.10;;;;;;5134687;27;20526;-37
2021/08/29 00:30:33;;;;;;;17.02;5.38;;;15.80;86.20;;;;;;5135128;27;20443;-37
2021/08/29 00:32:59;;;;;;;11.85;6.65;;;15.80;85.80;;;;;;5134624;27;20030;-37
2021/08/29 00:35:25;;;;;;;12.82;5.32;;;15.80;85.80;;;;;;5135258;27;20027;-37
2021/08/29 00:37:51;;;;;;;25.98;7.72;;;15.80;85.80;;;;;;5134871;27;20023;-37
2021/08/29 00:40:20;;;;;;;10.25;5.13;;;15.80;85.80;;;;;;5134447;27;20378;-38
2021/08/29 00:42:47;;;;;;;9.43;4.75;;;15.80;85.80;;;;;;5134636;27;20019;-37
2021/08/29 00:45:14;;;;;;;11.82;5.90;;;15.80;85.80;;;;;;5134631;27;20099;-38
2021/08/29 00:47:40;;;;;;;18.52;5.70;;;15.70;85.90;;;;;;5135051;27;20031;-38
2021/08/29 00:50:06;;;;;;;13.00;5.05;;;15.70;86.20;;;;;;5134187;27;20042;-36
2021/08/29 00:52:39;;;;;;;8.82;4.97;;;15.70;86.20;;;;;;5134036;27;20047;-37
2021/08/29 00:55:05;;;;;;;9.13;4.30;;;15.80;86.10;;;;;;5133921;27;20125;-39
2021/08/29 00:57:31;;;;;;;14.27;5.18;;;15.70;86.20;;;;;;5133221;27;20027;-37
2021/08/29 00:59:57;;;;;;;8.75;4.22;;;15.70;85.70;;;;;;5134029;27;20027;-37
2021/08/29 01:02:27;;;;;;;12.32;4.78;;;15.70;85.70;;;;;;5134057;27;20027;-37
2021/08/29 01:04:52;;;;;;;12.18;4.50;;;15.80;85.60;;;;;;5134078;27;20023;-37
2021/08/29 01:07:25;;;;;;;9.32;4.72;;;15.80;85.40;;;;;;5133712;27;20076;-37
2021/08/29 01:09:58;;;;;;;11.13;4.28;;;15.70;85.80;;;;;;5133993;27;20054;-37
2021/08/29 01:12:29;;;;;;;12.98;4.20;;;15.80;85.50;;;;;;5133836;27;20034;-37
2021/08/29 01:14:56;;;;;;;8.95;4.55;;;15.70;85.50;;;;;;5133742;27;20115;-37
2021/08/29 01:17:28;;;;;;;6.20;4.45;;;15.70;85.60;;;;;;5134032;27;20543;-37
2021/08/29 01:20:07;;;;;;;9.27;5.15;;;15.70;85.70;;;;;;5132374;27;20024;-37
2021/08/29 01:22:34;;;;;;;7.93;4.20;;;15.80;85.00;;;;;;5133955;27;20026;-37
2021/08/29 01:25:00;;;;;;;9.38;3.63;;;15.70;85.40;;;;;;5133820;27;20027;-37
2021/08/29 01:27:32;;;;;;;9.85;4.43;;;15.70;85.40;;;;;;5132800;27;20031;-37
2021/08/29 01:29:59;;;;;;;14.00;5.05;;;15.70;85.50;;;;;;5133772;28;20031;-37
2021/08/29 01:32:25;;;;;;;9.48;4.55;;;15.70;85.50;;;;;;5133782;28;20046;-38
2021/08/29 01:34:51;;;;;;;6.60;4.50;;;15.70;85.70;;;;;;5136457;27;20027;-37
2021/08/29 01:37:18;;;;;;;9.50;4.93;;;15.70;85.10;;;;;;5138411;27;20027;-39
2021/08/29 01:39:44;;;;;;;13.18;4.88;;;15.70;85.10;;;;;;5138025;27;20023;-39
2021/08/29 01:42:11;;;;;;;13.13;4.85;;;15.70;85.30;;;;;;5138235;27;20019;-45
2021/08/29 01:44:39;;;;;;;9.93;5.05;;;15.60;85.40;;;;;;5137839;27;20061;-36
2021/08/29 01:47:05;;;;;;;10.73;5.15;;;15.70;85.60;;;;;;5138272;27;20068;-37
2021/08/29 01:49:31;;;;;;;13.85;5.85;;;15.70;85.30;;;;;;5136401;27;20034;-38
2021/08/29 01:51:57;;;;;;;12.75;4.80;;;15.70;85.10;;;;;;5138199;27;20046;-38
2021/08/29 01:54:23;;;;;;;9.13;4.97;;;15.70;85.40;;;;;;5136489;27;20023;-37
2021/08/29 01:57:00;;;;;;;9.25;5.13;;;15.70;85.40;;;;;;5137741;27;20300;-38
2021/08/29 01:59:27;;;;;;;11.75;6.35;;;15.60;85.70;;;;;;5137900;27;20031;-37
2021/08/29 02:01:53;;;;;;;8.88;5.45;;;15.70;85.50;;;;;;5137613;27;20015;-37
2021/08/29 02:04:20;;;;;;;13.98;5.70;;;15.60;85.60;;;;;;5137483;27;20027;-37
2021/08/29 02:06:49;;;;;;;10.48;5.80;;;15.60;85.60;;;;;;5136234;27;20027;-38
2021/08/29 02:09:17;;;;;;;10.32;6.05;;;15.60;85.70;;;;;;5137419;27;20019;-37
2021/08/29 02:11:49;;;;;;;12.90;5.82;;;15.50;86.20;;;;;;5137585;27;20037;-37
2021/08/29 02:14:20;;;;;;;11.93;4.78;;;15.60;86.00;;;;;;5135975;27;20031;-37
2021/08/29 02:16:47;;;;;;;11.85;5.63;;;15.50;86.20;;;;;;5137396;27;20092;-37
2021/08/29 02:19:14;;;;;;;10.27;4.95;;;15.40;86.20;;;;;;5137182;27;20023;-37
2021/08/29 02:21:40;;;;;;;7.10;4.80;;;15.60;86.50;;;;;;5136266;27;20023;-37
2021/08/29 02:24:07;;;;;;;9.63;5.15;;;15.50;86.20;;;;;;5137353;27;20421;-37
2021/08/29 02:26:33;;;;;;;11.18;5.68;;;15.60;85.80;;;;;;5137313;27;20027;-37
2021/08/29 02:28:59;;;;;;;12.45;6.25;;;15.70;85.80;;;;;;5137018;27;20085;-37
2021/08/29 02:31:25;;;;;;;10.70;4.63;;;15.70;85.60;;;;;;5137026;27;20367;-38
2021/08/29 02:33:51;;;;;;;10.07;4.88;;;15.60;85.90;;;;;;5136915;27;20053;-37
2021/08/29 02:36:19;;;;;;;12.60;5.03;;;15.60;86.00;;;;;;5136979;27;20023;-37
2021/08/29 02:38:48;;;;;;;9.23;5.68;;;15.60;86.00;;;;;;5137841;27;20024;-36
2021/08/29 02:41:16;;;;;;;15.85;6.10;;;15.60;86.00;;;;;;5137068;27;20038;-36
2021/08/29 02:43:44;;;;;;;11.80;5.85;;;15.50;86.70;;;;;;5137082;27;20049;-37
2021/08/29 02:46:10;;;;;;;11.45;5.20;;;15.50;86.90;;;;;;5136674;27;20441;-38
2021/08/29 02:48:36;;;;;;;16.52;7.28;;;15.50;87.10;;;;;;5135510;27;20455;-38
2021/08/29 02:51:02;;;;;;;12.95;5.63;;;15.50;87.10;;;;;;5136038;27;20015;-38
2021/08/29 02:53:28;;;;;;;15.80;6.47;;;15.50;86.90;;;;;;5136976;27;20047;-38
2021/08/29 02:55:59;;;;;;;13.10;6.43;;;15.40;87.30;;;;;;5136742;27;20077;-37
2021/08/29 02:58:26;;;;;;;14.27;7.07;;;15.40;88.00;;;;;;5136849;27;20081;-37
2021/08/29 03:00:52;;;;;;;18.65;5.47;;;15.30;88.10;;;;;;5136716;27;20016;-37
2021/08/29 03:03:18;;;;;;;13.45;6.68;;;15.30;88.10;;;;;;5136519;27;20438;-37
2021/08/29 03:05:44;;;;;;;13.02;6.55;;;15.20;88.50;;;;;;5136321;27;20106;-37
2021/08/29 03:08:10;;;;;;;14.63;7.05;;;15.30;89.00;;;;;;5136364;27;20026;-37
2021/08/29 03:10:36;;;;;;;23.67;7.68;;;15.20;88.80;;;;;;5136810;27;20031;-38
2021/08/29 03:13:03;;;;;;;14.57;6.75;;;15.20;88.90;;;;;;5136433;27;20098;-37
2021/08/29 03:15:30;;;;;;;13.02;6.10;;;15.20;88.80;;;;;;5136278;27;20023;-37
2021/08/29 03:17:56;;;;;;;11.20;6.90;;;15.30;88.50;;;;;;5136132;27;20133;-38
2021/08/29 03:20:23;;;;;;;15.13;8.07;;;15.30;88.50;;;;;;5136015;27;20215;-37
2021/08/29 03:22:49;;;;;;;16.60;5.18;;;15.30;88.40;;;;;;5136027;27;20486;-37
2021/08/29 03:25:16;;;;;;;15.32;6.07;;;15.30;88.50;;;;;;5136452;27;20019;-37
2021/08/29 03:27:42;;;;;;;25.52;8.50;;;15.40;88.00;;;;;;5134775;27;20057;-37
2021/08/29 03:30:08;;;;;;;15.30;5.97;;;15.40;87.80;;;;;;5136150;27;20019;-37
2021/08/29 03:32:34;;;;;;;15.43;5.85;;;15.50;87.70;;;;;;5135874;27;20028;-38
2021/08/29 03:35:01;;;;;;;14.70;6.40;;;15.30;87.70;;;;;;5134600;27;20384;-38
2021/08/29 03:37:27;;;;;;;15.05;6.20;;;15.30;87.90;;;;;;5135913;27;20027;-38
2021/08/29 03:39:54;;;;;;;15.32;6.68;;;15.40;87.90;;;;;;5135871;27;20367;-37
2021/08/29 03:42:21;;;;;;;12.93;6.78;;;15.30;87.80;;;;;;5135591;27;20096;-37
2021/08/29 03:44:47;;;;;;;13.40;5.72;;;15.40;87.70;;;;;;5135566;27;20043;-37
2021/08/29 03:47:13;;;;;;;10.32;5.85;;;15.40;87.80;;;;;;5135786;27;20054;-37
2021/08/29 03:49:39;;;;;;;12.43;6.15;;;15.40;87.80;;;;;;5135470;27;20035;-37
2021/08/29 03:52:06;;;;;;;13.90;6.25;;;15.40;87.70;;;;;;5135671;27;20496;-37
2021/08/29 03:54:32;;;;;;;13.63;5.85;;;15.40;87.60;;;;;;5135427;27;20466;-37
2021/08/29 03:56:58;;;;;;;11.95;5.30;;;15.40;87.90;;;;;;5134816;27;20061;-36
2021/08/29 03:59:24;;;;;;;16.85;6.00;;;15.40;88.20;;;;;;5135475;27;20015;-37
2021/08/29 04:01:50;;;;;;;13.80;5.28;;;15.50;87.80;;;;;;5135711;27;20131;-37
2021/08/29 04:04:16;;;;;;;19.50;7.20;;;15.50;87.50;;;;;;5135236;27;20031;-39
2021/08/29 04:06:44;;;;;;;13.95;5.82;;;15.50;87.50;;;;;;5135393;27;20026;-37
2021/08/29 04:09:12;;;;;;;15.25;6.35;;;15.50;87.40;;;;;;5135319;27;20055;-37
2021/08/29 04:11:42;;;;;;;18.25;5.55;;;15.50;87.40;;;;;;5133708;27;20339;-37
2021/08/29 04:14:11;;;;;;;19.60;6.63;;;15.50;87.50;;;;;;5135647;27;20027;-37
2021/08/29 04:16:38;;;;;;;16.75;5.85;;;15.60;87.20;;;;;;5134891;27;20382;-38
2021/08/29 04:19:05;;;;;;;24.33;6.30;;;15.50;87.20;;;;;;5134800;27;20113;-36
2021/08/29 04:21:31;;;;;;;13.98;6.05;;;15.50;87.60;;;;;;5135276;27;20471;-37
2021/08/29 04:23:57;;;;;;;15.45;5.82;;;15.50;87.60;;;;;;5135776;27;20030;-36
2021/08/29 04:26:23;;;;;;;10.63;5.03;;;15.50;87.40;;;;;;5135066;27;20098;-37
2021/08/29 04:28:50;;;;;;;14.35;6.15;;;15.50;87.40;;;;;;5135229;27;20026;-36
2021/08/29 04:31:27;;;;;;;12.60;5.18;;;15.50;87.40;;;;;;5133890;27;20023;-36
2021/08/29 04:33:53;;;;;;;18.30;5.47;;;15.50;87.80;;;;;;5135192;27;20034;-37
2021/08/29 04:36:19;;;;;;;15.27;5.95;;;15.50;87.50;;;;;;5134566;27;20383;-37
2021/08/29 04:38:44;;;;;;;14.75;5.82;;;15.50;87.50;;;;;;5134689;27;20031;-37
2021/08/29 04:41:10;;;;;;;13.68;5.93;;;15.50;87.40;;;;;;5134550;27;20467;-37
2021/08/29 04:43:36;;;;;;;17.58;6.10;;;15.40;87.70;;;;;;5133216;27;20122;-37
2021/08/29 04:46:01;;;;;;;20.55;7.15;;;15.50;87.50;;;;;;5134539;27;20550;-37
2021/08/29 04:48:27;;;;;;;19.63;6.15;;;15.50;87.60;;;;;;5134401;27;20031;-37
2021/08/29 04:50:53;;;;;;;14.18;5.93;;;15.50;87.70;;;;;;5134578;27;20059;-37
2021/08/29 04:53:18;;;;;;;15.15;6.05;;;15.50;87.70;;;;;;5134131;27;20057;-37
2021/08/29 04:55:44;;;;;;;16.48;5.35;;;15.50;87.80;;;;;;5134464;27;20027;-35
2021/08/29 04:58:09;;;;;;;12.00;5.28;;;15.50;87.80;;;;;;5134248;27;20042;-37
2021/08/29 05:00:35;;;;;;;13.05;5.80;;;15.50;87.90;;;;;;5132931;27;20152;-38
2021/08/29 05:03:01;;;;;;;12.93;6.32;;;15.50;87.90;;;;;;5134173;27;20023;-38
2021/08/29 05:05:26;;;;;;;18.65;5.60;;;15.50;87.80;;;;;;5134345;27;20019;-37
2021/08/29 05:07:52;;;;;;;27.05;8.35;;;15.40;87.90;;;;;;5133680;27;20110;-37
2021/08/29 05:10:18;;;;;;;17.30;8.07;;;15.50;87.90;;;;;;5133674;27;20094;-37
2021/08/29 05:12:43;;;;;;;14.50;6.45;;;15.40;87.90;;;;;;5134117;27;20021;-37
2021/08/29 05:15:09;;;;;;;13.93;6.10;;;15.60;87.70;;;;;;5134110;27;20101;-36
2021/08/29 05:17:35;;;;;;;20.73;6.75;;;15.60;87.40;;;;;;5134295;27;20041;-38
2021/08/29 05:20:01;;;;;;;16.52;5.68;;;15.50;87.80;;;;;;5134449;27;20027;-38
2021/08/29 05:22:26;;;;;;;14.07;5.80;;;15.50;87.60;;;;;;5134394;27;20050;-36
2021/08/29 05:24:52;;;;;;;16.50;6.65;;;15.50;88.00;;;;;;5133848;27;20062;-38
2021/08/29 05:27:18;;;;;;;20.33;6.47;;;15.60;87.70;;;;;;5134300;27;20066;-36
2021/08/29 05:29:43;;;;;;;14.60;6.03;;;15.60;87.70;;;;;;5133987;28;20503;-37
2021/08/29 05:32:09;;;;;;;18.20;6.43;;;15.60;87.70;;;;;;5133799;28;20019;-37
2021/08/29 05:34:34;;;;;;;15.57;6.72;;;15.60;87.70;;;;;;5133750;28;20027;-37
2021/08/29 05:37:00;;;;;;;19.15;6.13;;;15.60;87.60;;;;;;5133933;28;20020;-36
2021/08/29 05:39:26;;;;;;;14.63;6.13;;;15.60;87.70;;;;;;5133885;28;20494;-37
2021/08/29 05:41:51;;;;;;;16.25;7.00;;;15.60;87.70;;;;;;5133792;28;20050;-37
2021/08/29 05:44:17;;;;;;;18.67;7.25;;;15.60;87.90;;;;;;5133807;28;20030;-37
2021/08/29 05:46:43;;;;;;;18.92;8.10;;;15.50;88.00;;;;;;5132361;28;20057;-37
2021/08/29 05:49:08;;;;;;;14.98;5.97;;;15.60;87.40;;;;;;5134153;28;20035;-37
2021/08/29 05:51:34;;;;;;;13.23;6.07;;;15.60;87.60;;;;;;5133995;28;20020;-38
2021/08/29 05:54:00;;;;;;;14.82;6.45;;;15.70;87.60;;;;;;5133509;27;20043;-38
2021/08/29 05:56:25;;;;;;;21.30;7.07;;;15.70;87.60;;;;;;5133905;28;20027;-37
2021/08/29 05:58:51;;;;;;;11.35;6.38;;;15.70;87.20;;;;;;5133650;28;20058;-37
2021/08/29 06:01:16;;;;;;;20.65;7.32;;;15.70;87.40;;;;;;5133888;28;20019;-37
2021/08/29 06:03:42;;;;;;;12.02;5.57;;;15.70;87.70;;;;;;5133883;28;20019;-36
2021/08/29 06:06:08;;;;;;;17.20;6.80;;;15.60;87.80;;;;;;5134559;27;20028;-36
2021/08/29 06:08:34;;;;;;;15.45;6.25;;;15.70;87.90;;;;;;5133632;28;20015;-36
2021/08/29 06:10:59;;;;;;;25.23;9.23;;;15.60;88.10;;;;;;5133676;28;20475;-37
2021/08/29 06:13:25;;;;;;;20.23;6.80;;;15.60;88.50;;;;;;5133855;28;20023;-37
2021/08/29 06:15:51;;;;;;;21.52;6.28;;;15.60;88.30;;;;;;5133461;28;20031;-38
2021/08/29 06:18:17;;;;;;;12.82;6.18;;;15.60;88.40;;;;;;5132279;28;20031;-37
2021/08/29 06:20:42;;;;;;;11.75;6.22;;;15.60;88.30;;;;;;5135633;27;20110;-38
2021/08/29 06:23:09;;;;;;;12.98;6.18;;;15.60;88.20;;;;;;5137292;27;20019;-38
2021/08/29 06:25:34;;;;;;;13.75;7.28;;;15.50;88.50;;;;;;5137548;27;20031;-37
2021/08/29 06:28:00;;;;;;;16.05;6.38;;;15.70;88.40;;;;;;5137137;27;20046;-36
2021/08/29 06:30:26;;;;;;;16.50;6.90;;;15.70;88.40;;;;;;5137387;27;20034;-38
2021/08/29 06:32:51;;;;;;;17.70;6.35;;;15.70;88.70;;;;;;5137467;27;20102;-37
2021/08/29 06:35:17;;;;;;;19.77;6.57;;;15.70;88.50;;;;;;5137072;27;20046;-38
2021/08/29 06:37:43;;;;;;;16.33;5.63;;;15.80;88.50;;;;;;5137052;27;20015;-38
2021/08/29 06:40:09;;;;;;;16.52;5.82;;;15.70;88.10;;;;;;5135675;27;20052;-38
2021/08/29 06:42:35;;;;;;;17.52;6.75;;;15.70;88.10;;;;;;5135581;27;20023;-37
2021/08/29 06:45:00;;;;;;;14.00;6.43;;;15.80;88.50;;;;;;5136892;27;20030;-37
2021/08/29 06:47:26;;;;;;;12.68;6.15;;;15.70;88.60;;;;;;5136747;27;20027;-37
2021/08/29 06:49:52;;;;;;;10.23;5.50;;;15.40;89.50;;;;;;5136707;27;20030;-37
2021/08/29 06:52:18;;;;;;;12.98;6.55;;;15.40;89.70;;;;;;5136837;27;20050;-37
2021/08/29 06:54:43;;;;;;;14.38;6.22;;;15.40;89.70;;;;;;5136847;27;20114;-37
2021/08/29 06:57:10;;;;;;;16.25;6.22;;;15.40;90.10;;;;;;5136677;27;20027;-37
2021/08/29 06:59:35;;;;;;;15.70;6.38;;;15.50;89.90;;;;;;5136607;27;20128;-37
2021/08/29 07:02:01;;;;;;;16.63;6.55;;;15.60;89.50;;;;;;5136740;27;20015;-37
2021/08/29 07:04:26;;;;;;;12.48;5.93;;;15.50;89.70;;;;;;5135174;27;20482;-37
2021/08/29 07:06:52;;;;;;;15.73;6.70;;;15.50;89.70;;;;;;5137371;27;20047;-37
2021/08/29 07:09:18;;;;;;;11.57;5.75;;;15.50;89.70;;;;;;5136721;27;20034;-37
2021/08/29 07:11:43;;;;;;;19.02;7.30;;;15.50;89.80;;;;;;5136477;27;20051;-37
2021/08/29 07:14:09;;;;;;;12.60;6.18;;;15.50;89.90;;;;;;5136514;27;20023;-37
2021/08/29 07:16:34;;;;;;;20.58;7.18;;;15.50;90.00;;;;;;5136253;27;20096;-37
2021/08/29 07:19:00;;;;;;;15.52;7.03;;;15.40;90.20;;;;;;5136144;27;20019;-37
2021/08/29 07:21:26;;;;;;;21.90;8.05;;;15.40;90.70;;;;;;5134847;27;20431;-36
2021/08/29 07:23:51;;;;;;;10.30;6.43;;;15.40;90.60;;;;;;5136649;27;20018;-37
2021/08/29 07:26:17;;;;;;;19.30;8.38;;;15.40;90.80;;;;;;5134852;27;20011;-37
2021/08/29 07:28:43;;;;;;;18.50;9.48;;;15.30;90.90;;;;;;5136186;27;20073;-37
2021/08/29 07:31:10;;;;;;;18.13;7.15;;;15.30;91.30;;;;;;5135689;27;20471;-41
2021/08/29 07:33:36;;;;;;;15.77;7.00;;;15.30;91.70;;;;;;5134464;27;20051;-37
2021/08/29 07:36:02;;;;;;;12.75;6.82;;;15.30;91.50;;;;;;5135847;27;20030;-37
2021/08/29 07:38:28;;;;;;;10.75;5.88;;;15.40;91.30;;;;;;5135923;27;20027;-37
2021/08/29 07:40:53;;;;;;;17.25;6.05;;;15.40;91.50;;;;;;5136059;27;20069;-37
2021/08/29 07:43:19;;;;;;;9.32;5.55;;;15.40;91.20;;;;;;5136039;27;20121;-42
2021/08/29 07:45:45;;;;;;;13.48;5.38;;;15.40;91.20;;;;;;5134403;27;20034;-37
2021/08/29 07:48:11;;;;;;;10.23;5.28;;;15.50;91.10;;;;;;5136008;27;20088;-37
2021/08/29 07:50:36;;;;;;;13.60;5.93;;;15.40;90.80;;;;;;5135786;27;20026;-37
2021/08/29 07:53:02;;;;;;;12.93;5.45;;;15.50;90.90;;;;;;5135323;27;20054;-37
2021/08/29 07:55:28;;;;;;;14.80;4.85;;;15.50;90.80;;;;;;5135353;27;20514;-37
2021/08/29 07:57:54;;;;;;;8.75;4.75;;;15.50;90.60;;;;;;5135378;27;20039;-37
2021/08/29 08:00:20;;;;;;;17.77;5.97;;;15.50;90.60;;;;;;5135768;27;20019;-37
2021/08/29 08:02:46;;;;;;;5.75;4.32;;;15.50;91.20;;;;;;5135882;27;20076;-37
2021/08/29 08:05:11;;;;;;;8.82;4.50;;;15.30;90.70;;;;;;5135228;27;20467;-53
2021/08/29 08:07:37;;;;;;;13.77;6.72;;;15.30;91.40;;;;;;5133900;27;20106;-52
2021/08/29 08:10:05;;;;;;;10.02;5.95;;;15.30;91.40;;;;;;5135385;27;20038;-42
2021/08/29 08:12:31;;;;;;;9.35;4.32;;;15.20;91.20;;;;;;5133656;27;20028;-43
2021/08/29 08:14:56;;;;;;;12.25;4.40;;;15.20;91.30;;;;;;5135213;27;20096;-38
2021/08/29 08:17:22;;;;;;;9.02;4.70;;;15.30;91.70;;;;;;5135352;27;20023;-38
2021/08/29 08:19:48;;;;;;;10.05;4.95;;;15.20;91.60;;;;;;5135148;27;20069;-37
2021/08/29 08:22:14;;;;;;;11.10;4.97;;;15.30;91.60;;;;;;5135192;27;20016;-37
2021/08/29 08:24:39;;;;;;;13.82;5.93;;;15.30;91.50;;;;;;5135650;27;20023;-37
2021/08/29 08:27:05;;;;;;;15.48;5.63;;;15.20;91.60;;;;;;5135211;27;20471;-38
2021/08/29 08:29:31;;;;;;;11.98;5.57;;;15.30;91.50;;;;;;5135012;27;20125;-38
2021/08/29 08:31:56;;;;;;;9.57;5.25;;;15.30;91.30;;;;;;5134933;27;20439;-36
2021/08/29 08:34:22;;;;;;;14.00;5.22;;;15.30;91.20;;;;;;5135151;27;20027;-37
2021/08/29 08:36:48;;;;;;;10.45;4.82;;;15.20;91.60;;;;;;5135058;27;20034;-36
2021/08/29 08:39:13;;;;;;;12.40;6.20;;;15.20;91.80;;;;;;5135062;27;20367;-37
2021/08/29 08:41:39;;;;;;;13.77;6.25;;;15.30;91.40;;;;;;5134629;27;20371;-38
2021/08/29 08:44:06;;;;;;;8.95;5.22;;;15.20;91.40;;;;;;5133391;27;20031;-37
2021/08/29 08:46:33;;;;;;;11.48;4.55;;;15.20;91.90;;;;;;5134403;27;20027;-37
2021/08/29 08:49:01;;;;;;;7.68;5.00;;;15.20;91.60;;;;;;5134427;27;20475;-37
2021/08/29 08:51:29;;;;;;;9.00;4.10;;;15.00;92.00;;;;;;5134898;27;20021;-37
2021/08/29 08:53:58;;;;;;;9.43;6.07;;;15.20;91.80;;;;;;5134345;27;20134;-38
2021/08/29 08:56:25;;;;;;;9.98;4.82;;;15.10;92.30;;;;;;5134823;27;20049;-39
2021/08/29 08:58:55;;;;;;;7.03;4.70;;;15.20;92.20;;;;;;5134105;27;20370;-36
2021/08/29 09:01:21;;;;;;;11.50;5.30;;;15.30;91.90;;;;;;5134351;27;20019;-37
2021/08/29 09:03:47;;;;;;;8.77;4.88;;;15.30;92.20;;;;;;5134374;27;20057;-37
2021/08/29 09:06:13;;;;;;;6.88;4.10;;;15.30;91.60;;;;;;5134560;27;20051;-37
2021/08/29 09:08:39;;;;;;;8.60;3.63;;;15.30;91.80;;;;;;5134390;27;20102;-38
2021/08/29 09:11:05;;;;;;;7.65;4.05;;;15.20;91.90;;;;;;5134441;27;20046;-37
2021/08/29 09:13:53;;;;;;;6.70;3.50;;;15.30;92.10;;;;;;5134071;27;20054;-38
2021/08/29 09:16:21;;;;;;;7.93;4.40;;;15.30;91.70;;;;;;5134060;27;20106;-37
2021/08/29 09:18:55;;;;;;;8.80;4.22;;;15.30;91.60;;;;;;5134114;27;20369;-37
2021/08/29 09:21:22;;;;;;;6.07;3.92;;;15.30;91.70;;;;;;5134184;27;20016;-37
2021/08/29 09:23:47;;;;;;;7.10;4.80;;;15.30;91.70;;;;;;5133751;27;20043;-37
2021/08/29 09:26:16;;;;;;;8.43;4.38;;;15.20;91.60;;;;;;5134341;27;20414;-38
2021/08/29 09:28:42;;;;;;;9.68;4.50;;;15.20;92.10;;;;;;5134190;27;20027;-38
2021/08/29 09:31:07;;;;;;;11.20;5.43;;;15.20;92.20;;;;;;5134208;28;20028;-38
2021/08/29 09:33:33;;;;;;;5.90;3.95;;;15.30;92.10;;;;;;5134359;28;20339;-38
2021/08/29 09:35:59;;;;;;;7.15;3.75;;;15.30;91.80;;;;;;5134474;28;20031;-38
2021/08/29 09:38:25;;;;;;;12.90;4.80;;;15.30;91.90;;;;;;5134078;28;20400;-38
2021/08/29 09:40:51;;;;;;;7.65;3.97;;;15.30;92.10;;;;;;5134548;28;20102;-37
2021/08/29 09:43:17;;;;;;;6.57;4.38;;;15.30;91.70;;;;;;5132406;28;20026;-37
2021/08/29 09:45:45;;;;;;;7.22;4.13;;;15.40;92.00;;;;;;5133851;28;20020;-37
2021/08/29 09:48:14;;;;;;;7.68;3.75;;;15.30;91.80;;;;;;5133312;28;20023;-38
2021/08/29 09:50:42;;;;;;;6.85;4.60;;;15.30;91.90;;;;;;5134698;28;20019;-38
2021/08/29 09:53:16;;;;;;;9.00;5.18;;;15.30;92.20;;;;;;5133762;27;20039;-38
2021/08/29 09:55:44;;;;;;;8.40;4.35;;;15.40;92.00;;;;;;5135885;27;20031;-38
2021/08/29 09:58:27;;;;;;;4.53;3.75;;;15.40;92.10;;;;;;5137853;27;20020;-38
2021/08/29 10:01:11;;;;;;;4.60;3.13;;;15.40;91.80;;;;;;5120714;27;20382;-37
2021/08/29 10:03:42;;;;;;;5.57;3.65;;;15.40;92.00;;;;;;5138346;27;20413;-37
2021/08/29 10:06:19;;;;;;;6.63;3.35;;;15.50;91.80;;;;;;5138620;27;20023;-38
2021/08/29 10:08:53;;;;;;;9.07;3.60;;;15.40;91.80;;;;;;5138098;27;20489;-37
2021/08/29 10:11:20;;;;;;;4.72;3.70;;;15.50;91.90;;;;;;5138196;27;20080;-36
2021/08/29 10:13:46;;;;;;;5.88;3.58;;;15.50;91.70;;;;;;5137953;27;20057;-37
2021/08/29 10:16:13;;;;;;;6.05;3.83;;;15.50;91.90;;;;;;5137625;27;20030;-37
2021/08/29 10:18:42;;;;;;;8.15;4.60;;;15.50;91.70;;;;;;5138182;27;20031;-38
2021/08/29 10:21:13;;;;;;;7.40;4.53;;;15.40;91.80;;;;;;5137695;27;20046;-38
2021/08/29 10:23:41;;;;;;;4.40;3.03;;;15.60;91.90;;;;;;5136189;27;20105;-38
2021/08/29 10:26:08;;;;;;;5.20;3.50;;;15.60;91.50;;;;;;5137342;27;20027;-38
2021/08/29 10:28:39;;;;;;;7.90;3.33;;;15.50;91.50;;;;;;5137498;27;20442;-38
2021/08/29 10:31:15;;;;;;;3.63;3.00;;;15.60;91.40;;;;;;5119337;27;20016;-37
2021/08/29 10:33:47;;;;;;;6.10;4.20;;;15.60;91.60;;;;;;5136172;27;20027;-38
2021/08/29 10:36:17;;;;;;;10.23;3.90;;;15.70;91.40;;;;;;5136648;27;20477;-38
2021/08/29 10:38:45;;;;;;;6.43;3.60;;;15.70;91.30;;;;;;5136075;27;20020;-36
2021/08/29 10:41:11;;;;;;;6.28;4.28;;;15.70;91.30;;;;;;5135901;27;20034;-39
2021/08/29 10:43:39;;;;;;;5.85;3.55;;;15.70;91.10;;;;;;5135878;27;20061;-37
2021/08/29 10:46:09;;;;;;;4.75;3.20;;;15.80;91.40;;;;;;5135806;27;20019;-37
2021/08/29 10:48:41;;;;;;;4.63;3.30;;;15.70;91.60;;;;;;5137316;27;20480;-37
2021/08/29 10:51:10;;;;;;;5.47;4.28;;;15.60;91.80;;;;;;5137027;27;20272;-38
2021/08/29 10:53:56;;;;;;;6.82;4.68;;;15.60;92.00;;;;;;5135375;27;20043;-38
2021/08/29 10:56:22;;;;;;;7.18;4.95;;;15.60;92.00;;;;;;5136440;27;20027;-37
2021/08/29 10:59:08;;;;;;;8.27;4.95;;;15.70;91.90;;;;;;5135474;27;20042;-38
2021/08/29 11:01:40;;;;;;;5.95;4.30;;;15.80;91.90;;;;;;5136458;27;20023;-36
2021/08/29 11:04:18;;;;;;;7.22;5.35;;;15.80;91.80;;;;;;5135786;27;20030;-39
2021/08/29 11:06:54;;;;;;;6.15;4.47;;;15.80;91.80;;;;;;5135967;27;20027;-40
2021/08/29 11:09:35;;;;;;;6.78;4.63;;;15.90;92.10;;;;;;5136879;27;20023;-39
2021/08/29 11:12:06;;;;;;;6.03;4.25;;;16.00;91.60;;;;;;5136792;27;20019;-41
2021/08/29 11:15:07;;;;;;;5.50;3.70;;;16.00;90.80;;;;;;5136581;27;20034;-40
2021/08/29 11:17:38;;;;;;;5.05;3.10;;;16.10;90.70;;;;;;5136606;27;20019;-38
2021/08/29 11:20:03;;;;;;;4.43;3.15;;;16.10;90.30;;;;;;5136859;27;20015;-39
2021/08/29 11:22:44;;;;;;;5.03;3.72;;;16.10;90.40;;;;;;5137144;27;20042;-39
2021/08/29 11:25:09;;;;;;;4.75;3.67;;;16.10;90.80;;;;;;5136854;27;20076;-39
2021/08/29 11:27:44;;;;;;;5.35;3.90;;;16.00;90.90;;;;;;5136686;27;20470;-38
2021/08/29 11:30:22;;;;;;;7.05;3.80;;;15.90;91.00;;;;;;5136651;27;20023;-38
2021/08/29 11:32:56;;;;;;;8.50;5.75;;;15.90;91.40;;;;;;5135416;27;20425;-39
2021/08/29 11:35:22;;;;;;;5.22;4.03;;;15.90;91.40;;;;;;5136314;27;20023;-39
2021/08/29 11:38:23;;;;;;;5.35;4.55;;;15.80;91.50;;;;;;5136273;27;20068;-39
2021/08/29 11:40:56;;;;;;;8.23;5.82;;;15.80;91.70;;;;;;5125022;27;20088;-39
2021/08/29 11:43:27;;;;;;;5.47;4.45;;;15.80;91.60;;;;;;5137245;27;20106;-37
2021/08/29 11:46:03;;;;;;;9.38;5.03;;;15.90;91.40;;;;;;5136364;27;20081;-37
2021/08/29 11:48:33;;;;;;;11.10;7.35;;;16.10;91.50;;;;;;5136531;27;20050;-38
2021/08/29 11:50:59;;;;;;;8.80;5.85;;;16.50;91.50;;;;;;5136598;27;20023;-39
2021/08/29 11:53:26;;;;;;;9.40;5.82;;;16.60;89.90;;;;;;5134510;27;20082;-44
2021/08/29 11:56:03;;;;;;;5.28;4.10;;;16.70;89.40;;;;;;5134917;27;20383;-40
2021/08/29 11:58:29;;;;;;;8.23;5.15;;;16.80;88.50;;;;;;5136052;27;20022;-39
2021/08/29 12:01:01;;;;;;;7.18;4.45;;;16.90;88.70;;;;;;5134478;27;20094;-39
2021/08/29 12:03:32;;;;;;;7.13;4.65;;;16.80;88.10;;;;;;5135557;27;20069;-40
2021/08/29 12:06:14;;;;;;;5.55;4.47;;;17.00;88.20;;;;;;5135193;27;20030;-41
2021/08/29 12:08:51;;;;;;;8.73;3.95;;;16.90;88.40;;;;;;5135779;27;20106;-47
2021/08/29 12:11:18;;;;;;;4.85;3.33;;;16.80;87.80;;;;;;5135560;27;20088;-39
2021/08/29 12:13:44;;;;;;;5.45;3.28;;;16.70;87.30;;;;;;5135209;27;20023;-38
2021/08/29 12:16:11;;;;;;;6.07;3.70;;;16.60;87.70;;;;;;5135013;27;20035;-38
2021/08/29 12:18:39;;;;;;;4.10;3.70;;;16.30;89.00;;;;;;5134846;27;20020;-37
2021/08/29 12:21:07;;;;;;;5.43;4.35;;;16.30;89.90;;;;;;5135131;27;20030;-38
2021/08/29 12:23:34;;;;;;;6.45;4.15;;;16.30;90.00;;;;;;5135428;27;20019;-38
2021/08/29 12:26:03;;;;;;;4.35;3.95;;;16.20;90.40;;;;;;5135243;27;20355;-38
2021/08/29 12:28:29;;;;;;;5.68;4.57;;;16.20;90.60;;;;;;5133631;27;20030;-37
2021/08/29 12:30:56;;;;;;;7.20;4.57;;;16.10;91.10;;;;;;5133787;27;20031;-38
2021/08/29 12:33:24;;;;;;;6.57;5.03;;;16.10;91.60;;;;;;5133538;27;20033;-38
2021/08/29 12:35:50;;;;;;;5.97;5.38;;;16.10;91.60;;;;;;5134895;27;20412;-37
2021/08/29 12:38:27;;;;;;;8.07;5.30;;;16.10;91.80;;;;;;5134942;27;20426;-38
2021/08/29 12:40:56;;;;;;;6.28;4.75;;;16.10;92.00;;;;;;5135064;27;20364;-38
2021/08/29 12:43:25;;;;;;;8.60;6.10;;;16.30;91.80;;;;;;5134703;27;20379;-37